sensor_id;sensor_type;location;lat;lon;timestamp;P1;durP1;ratioP1;P2;durP2;ratioP2
71172;SDS011;58875;51.996;4.504;2023-03-29T00:00:39;4.61;;;4.61;;
71172;SDS011;58875;51.996;4.504;2023-03-29T00:03:05;4.68;;;4.66;;
71172;SDS011;58875;51.996;4.504;2023-03-29T00:05:30;4.34;;;4.34;;
71172;SDS011;58875;51.996;4.504;2023-03-29T00:07:59;4.57;;;4.57;;
71172;SDS011;58875;51.996;4.504;2023-03-29T00:10:29;4.57;;;4.54;;
71172;SDS011;58875;51.996;4.504;2023-03-29T00:12:56;4.83;;;4.75;;
71172;SDS011;58875;51.996;4.504;2023-03-29T00:15:22;4.67;;;4.67;;
71172;SDS011;58875;51.996;4.504;2023-03-29T00:17:48;4.77;;;4.77;;
71172;SDS011;58875;51.996;4.504;2023-03-29T00:20:14;4.93;;;4.93;;
71172;SDS011;58875;51.996;4.504;2023-03-29T00:22:40;4.73;;;4.73;;
71172;SDS011;58875;51.996;4.504;2023-03-29T00:25:08;4.80;;;4.80;;
71172;SDS011;58875;51.996;4.504;2023-03-29T00:27:35;4.92;;;4.92;;
71172;SDS011;58875;51.996;4.504;2023-03-29T00:30:02;5.07;;;5.07;;
71172;SDS011;58875;51.996;4.504;2023-03-29T00:32:29;4.85;;;4.85;;
71172;SDS011;58875;51.996;4.504;2023-03-29T00:34:55;5.03;;;5.03;;
71172;SDS011;58875;51.996;4.504;2023-03-29T00:37:22;5.10;;;5.10;;
71172;SDS011;58875;51.996;4.504;2023-03-29T00:39:54;5.41;;;5.41;;
71172;SDS011;58875;51.996;4.504;2023-03-29T00:42:21;5.43;;;5.43;;
71172;SDS011;58875;51.996;4.504;2023-03-29T00:47:50;5.54;;;5.54;;
71172;SDS011;58875;51.996;4.504;2023-03-29T00:50:28;5.78;;;5.74;;
71172;SDS011;58875;51.996;4.504;2023-03-29T00:55:28;5.68;;;5.68;;
71172;SDS011;58875;51.996;4.504;2023-03-29T00:58:03;5.47;;;5.47;;
71172;SDS011;58875;51.996;4.504;2023-03-29T01:00:34;5.55;;;5.55;;
71172;SDS011;58875;51.996;4.504;2023-03-29T01:03:07;5.62;;;5.62;;
71172;SDS011;58875;51.996;4.504;2023-03-29T01:05:39;5.61;;;5.61;;
71172;SDS011;58875;51.996;4.504;2023-03-29T01:08:20;5.79;;;5.79;;
71172;SDS011;58875;51.996;4.504;2023-03-29T01:10:55;5.83;;;5.83;;
71172;SDS011;58875;51.996;4.504;2023-03-29T01:13:36;5.75;;;5.75;;
71172;SDS011;58875;51.996;4.504;2023-03-29T01:16:15;5.88;;;5.88;;
71172;SDS011;58875;51.996;4.504;2023-03-29T01:18:46;5.81;;;5.81;;
71172;SDS011;58875;51.996;4.504;2023-03-29T01:21:19;5.72;;;5.72;;
71172;SDS011;58875;51.996;4.504;2023-03-29T01:24:00;5.63;;;5.63;;
71172;SDS011;58875;51.996;4.504;2023-03-29T01:29:45;6.14;;;6.14;;
71172;SDS011;58875;51.996;4.504;2023-03-29T01:32:30;5.76;;;5.76;;
71172;SDS011;58875;51.996;4.504;2023-03-29T01:35:12;5.85;;;5.85;;
71172;SDS011;58875;51.996;4.504;2023-03-29T01:37:52;5.81;;;5.81;;
71172;SDS011;58875;51.996;4.504;2023-03-29T01:40:31;6.07;;;6.07;;
71172;SDS011;58875;51.996;4.504;2023-03-29T01:46:06;6.08;;;6.08;;
71172;SDS011;58875;51.996;4.504;2023-03-29T01:48:53;5.73;;;5.73;;
71172;SDS011;58875;51.996;4.504;2023-03-29T01:51:35;6.01;;;6.01;;
71172;SDS011;58875;51.996;4.504;2023-03-29T01:54:07;6.30;;;6.27;;
71172;SDS011;58875;51.996;4.504;2023-03-29T01:56:40;6.28;;;6.23;;
71172;SDS011;58875;51.996;4.504;2023-03-29T01:59:12;6.29;;;6.27;;
71172;SDS011;58875;51.996;4.504;2023-03-29T02:01:44;5.94;;;5.94;;
71172;SDS011;58875;51.996;4.504;2023-03-29T02:04:15;6.01;;;6.01;;
71172;SDS011;58875;51.996;4.504;2023-03-29T02:06:46;6.04;;;6.04;;
71172;SDS011;58875;51.996;4.504;2023-03-29T02:09:18;6.03;;;6.03;;
71172;SDS011;58875;51.996;4.504;2023-03-29T02:11:45;6.23;;;6.23;;
71172;SDS011;58875;51.996;4.504;2023-03-29T02:14:11;6.07;;;6.07;;
71172;SDS011;58875;51.996;4.504;2023-03-29T02:16:38;5.96;;;5.96;;
71172;SDS011;58875;51.996;4.504;2023-03-29T02:19:04;5.81;;;5.81;;
71172;SDS011;58875;51.996;4.504;2023-03-29T02:21:43;6.18;;;6.15;;
71172;SDS011;58875;51.996;4.504;2023-03-29T02:24:12;5.95;;;5.94;;
71172;SDS011;58875;51.996;4.504;2023-03-29T02:26:42;6.03;;;6.03;;
71172;SDS011;58875;51.996;4.504;2023-03-29T02:29:08;6.08;;;6.08;;
71172;SDS011;58875;51.996;4.504;2023-03-29T02:31:45;6.15;;;6.15;;
71172;SDS011;58875;51.996;4.504;2023-03-29T02:34:36;6.42;;;6.42;;
71172;SDS011;58875;51.996;4.504;2023-03-29T02:37:14;6.56;;;6.56;;
71172;SDS011;58875;51.996;4.504;2023-03-29T02:39:44;6.52;;;6.52;;
71172;SDS011;58875;51.996;4.504;2023-03-29T02:42:14;6.28;;;6.28;;
71172;SDS011;58875;51.996;4.504;2023-03-29T02:44:44;6.49;;;6.49;;
71172;SDS011;58875;51.996;4.504;2023-03-29T02:47:15;6.90;;;6.90;;
71172;SDS011;58875;51.996;4.504;2023-03-29T02:49:51;7.08;;;7.08;;
71172;SDS011;58875;51.996;4.504;2023-03-29T02:52:18;7.05;;;7.05;;
71172;SDS011;58875;51.996;4.504;2023-03-29T02:54:51;7.03;;;7.03;;
71172;SDS011;58875;51.996;4.504;2023-03-29T02:57:20;7.14;;;7.14;;
71172;SDS011;58875;51.996;4.504;2023-03-29T02:59:51;6.91;;;6.90;;
71172;SDS011;58875;51.996;4.504;2023-03-29T03:02:17;7.35;;;7.35;;
71172;SDS011;58875;51.996;4.504;2023-03-29T03:04:44;7.09;;;7.06;;
71172;SDS011;58875;51.996;4.504;2023-03-29T03:07:09;7.29;;;7.27;;
71172;SDS011;58875;51.996;4.504;2023-03-29T03:09:35;6.81;;;6.80;;
71172;SDS011;58875;51.996;4.504;2023-03-29T03:12:01;6.90;;;6.90;;
71172;SDS011;58875;51.996;4.504;2023-03-29T03:14:26;7.34;;;7.34;;
71172;SDS011;58875;51.996;4.504;2023-03-29T03:16:52;7.10;;;7.08;;
71172;SDS011;58875;51.996;4.504;2023-03-29T03:19:19;6.99;;;6.95;;
71172;SDS011;58875;51.996;4.504;2023-03-29T03:21:45;7.15;;;7.13;;
71172;SDS011;58875;51.996;4.504;2023-03-29T03:24:11;7.00;;;7.00;;
71172;SDS011;58875;51.996;4.504;2023-03-29T03:26:37;6.72;;;6.72;;
71172;SDS011;58875;51.996;4.504;2023-03-29T03:29:03;7.05;;;7.05;;
71172;SDS011;58875;51.996;4.504;2023-03-29T03:31:29;7.05;;;7.05;;
71172;SDS011;58875;51.996;4.504;2023-03-29T03:33:54;7.04;;;7.04;;
71172;SDS011;58875;51.996;4.504;2023-03-29T03:36:21;7.18;;;7.17;;
71172;SDS011;58875;51.996;4.504;2023-03-29T03:38:53;6.89;;;6.89;;
71172;SDS011;58875;51.996;4.504;2023-03-29T03:41:18;6.91;;;6.91;;
71172;SDS011;58875;51.996;4.504;2023-03-29T03:43:44;7.18;;;7.18;;
71172;SDS011;58875;51.996;4.504;2023-03-29T03:46:16;7.20;;;7.20;;
71172;SDS011;58875;51.996;4.504;2023-03-29T03:48:42;7.39;;;7.39;;
71172;SDS011;58875;51.996;4.504;2023-03-29T03:51:08;7.15;;;7.15;;
71172;SDS011;58875;51.996;4.504;2023-03-29T03:53:34;7.22;;;7.22;;
71172;SDS011;58875;51.996;4.504;2023-03-29T03:56:00;7.05;;;7.05;;
71172;SDS011;58875;51.996;4.504;2023-03-29T03:58:26;7.34;;;7.34;;
71172;SDS011;58875;51.996;4.504;2023-03-29T04:00:52;7.34;;;7.34;;
71172;SDS011;58875;51.996;4.504;2023-03-29T04:03:19;7.59;;;7.59;;
71172;SDS011;58875;51.996;4.504;2023-03-29T04:05:44;7.27;;;7.26;;
71172;SDS011;58875;51.996;4.504;2023-03-29T04:08:11;7.42;;;7.42;;
71172;SDS011;58875;51.996;4.504;2023-03-29T04:10:39;7.29;;;7.27;;
71172;SDS011;58875;51.996;4.504;2023-03-29T04:13:05;7.81;;;7.77;;
71172;SDS011;58875;51.996;4.504;2023-03-29T04:15:32;7.84;;;7.76;;
71172;SDS011;58875;51.996;4.504;2023-03-29T04:18:02;7.70;;;7.70;;
71172;SDS011;58875;51.996;4.504;2023-03-29T04:20:28;7.71;;;7.71;;
71172;SDS011;58875;51.996;4.504;2023-03-29T04:22:54;7.72;;;7.72;;
71172;SDS011;58875;51.996;4.504;2023-03-29T04:25:20;8.13;;;8.13;;
71172;SDS011;58875;51.996;4.504;2023-03-29T04:27:46;7.99;;;7.99;;
71172;SDS011;58875;51.996;4.504;2023-03-29T04:30:13;8.40;;;8.40;;
71172;SDS011;58875;51.996;4.504;2023-03-29T04:32:38;8.59;;;8.59;;
71172;SDS011;58875;51.996;4.504;2023-03-29T04:35:04;8.59;;;8.59;;
71172;SDS011;58875;51.996;4.504;2023-03-29T04:37:30;8.50;;;8.50;;
71172;SDS011;58875;51.996;4.504;2023-03-29T04:39:56;8.65;;;8.65;;
71172;SDS011;58875;51.996;4.504;2023-03-29T04:42:25;8.85;;;8.85;;
71172;SDS011;58875;51.996;4.504;2023-03-29T04:44:51;8.67;;;8.67;;
71172;SDS011;58875;51.996;4.504;2023-03-29T04:47:18;8.49;;;8.49;;
71172;SDS011;58875;51.996;4.504;2023-03-29T04:49:45;8.76;;;8.76;;
71172;SDS011;58875;51.996;4.504;2023-03-29T04:52:11;8.80;;;8.80;;
71172;SDS011;58875;51.996;4.504;2023-03-29T04:54:36;9.04;;;9.04;;
71172;SDS011;58875;51.996;4.504;2023-03-29T04:57:03;9.11;;;9.11;;
71172;SDS011;58875;51.996;4.504;2023-03-29T04:59:30;8.66;;;8.66;;
71172;SDS011;58875;51.996;4.504;2023-03-29T05:01:56;8.59;;;8.59;;
71172;SDS011;58875;51.996;4.504;2023-03-29T05:04:22;8.79;;;8.79;;
71172;SDS011;58875;51.996;4.504;2023-03-29T05:06:48;8.80;;;8.80;;
71172;SDS011;58875;51.996;4.504;2023-03-29T05:09:14;8.64;;;8.64;;
71172;SDS011;58875;51.996;4.504;2023-03-29T05:11:41;8.54;;;8.54;;
71172;SDS011;58875;51.996;4.504;2023-03-29T05:14:06;8.67;;;8.66;;
71172;SDS011;58875;51.996;4.504;2023-03-29T05:16:33;8.72;;;8.72;;
71172;SDS011;58875;51.996;4.504;2023-03-29T05:18:59;8.40;;;8.40;;
71172;SDS011;58875;51.996;4.504;2023-03-29T05:21:25;8.54;;;8.54;;
71172;SDS011;58875;51.996;4.504;2023-03-29T05:23:52;8.55;;;8.55;;
71172;SDS011;58875;51.996;4.504;2023-03-29T05:26:19;8.85;;;8.85;;
71172;SDS011;58875;51.996;4.504;2023-03-29T05:28:46;8.40;;;8.40;;
71172;SDS011;58875;51.996;4.504;2023-03-29T05:31:12;8.74;;;8.72;;
71172;SDS011;58875;51.996;4.504;2023-03-29T05:33:38;8.99;;;8.94;;
71172;SDS011;58875;51.996;4.504;2023-03-29T05:36:04;8.85;;;8.85;;
71172;SDS011;58875;51.996;4.504;2023-03-29T05:38:33;8.96;;;8.96;;
71172;SDS011;58875;51.996;4.504;2023-03-29T05:40:59;9.03;;;9.03;;
71172;SDS011;58875;51.996;4.504;2023-03-29T05:43:25;9.46;;;9.46;;
71172;SDS011;58875;51.996;4.504;2023-03-29T05:45:54;9.12;;;9.12;;
71172;SDS011;58875;51.996;4.504;2023-03-29T05:48:20;9.05;;;9.04;;
71172;SDS011;58875;51.996;4.504;2023-03-29T05:50:51;9.32;;;9.32;;
71172;SDS011;58875;51.996;4.504;2023-03-29T05:53:19;9.31;;;9.30;;
71172;SDS011;58875;51.996;4.504;2023-03-29T05:55:46;9.15;;;9.14;;
71172;SDS011;58875;51.996;4.504;2023-03-29T05:58:12;9.05;;;9.05;;
71172;SDS011;58875;51.996;4.504;2023-03-29T06:00:40;8.82;;;8.82;;
71172;SDS011;58875;51.996;4.504;2023-03-29T06:03:06;9.23;;;9.22;;
71172;SDS011;58875;51.996;4.504;2023-03-29T06:05:33;9.14;;;9.14;;
71172;SDS011;58875;51.996;4.504;2023-03-29T06:07:59;9.47;;;9.47;;
71172;SDS011;58875;51.996;4.504;2023-03-29T06:10:25;9.40;;;9.40;;
71172;SDS011;58875;51.996;4.504;2023-03-29T06:12:51;9.26;;;9.26;;
71172;SDS011;58875;51.996;4.504;2023-03-29T06:15:17;9.27;;;9.26;;
71172;SDS011;58875;51.996;4.504;2023-03-29T06:17:44;9.57;;;9.57;;
71172;SDS011;58875;51.996;4.504;2023-03-29T06:20:10;9.33;;;9.32;;
71172;SDS011;58875;51.996;4.504;2023-03-29T06:22:37;9.72;;;9.71;;
71172;SDS011;58875;51.996;4.504;2023-03-29T06:25:07;9.81;;;9.77;;
71172;SDS011;58875;51.996;4.504;2023-03-29T06:27:35;9.29;;;9.29;;
71172;SDS011;58875;51.996;4.504;2023-03-29T06:30:01;9.86;;;9.86;;
71172;SDS011;58875;51.996;4.504;2023-03-29T06:32:28;9.52;;;9.52;;
71172;SDS011;58875;51.996;4.504;2023-03-29T06:34:53;10.11;;;10.11;;
71172;SDS011;58875;51.996;4.504;2023-03-29T06:37:20;10.08;;;10.06;;
71172;SDS011;58875;51.996;4.504;2023-03-29T06:39:48;10.34;;;10.29;;
71172;SDS011;58875;51.996;4.504;2023-03-29T06:42:21;10.41;;;10.41;;
71172;SDS011;58875;51.996;4.504;2023-03-29T06:44:46;10.16;;;10.16;;
71172;SDS011;58875;51.996;4.504;2023-03-29T06:47:13;11.11;;;11.09;;
71172;SDS011;58875;51.996;4.504;2023-03-29T06:49:39;10.97;;;10.97;;
71172;SDS011;58875;51.996;4.504;2023-03-29T06:52:05;11.11;;;11.11;;
71172;SDS011;58875;51.996;4.504;2023-03-29T06:54:30;11.62;;;11.62;;
71172;SDS011;58875;51.996;4.504;2023-03-29T06:56:58;11.90;;;11.90;;
71172;SDS011;58875;51.996;4.504;2023-03-29T06:59:24;12.01;;;11.99;;
71172;SDS011;58875;51.996;4.504;2023-03-29T07:01:50;12.20;;;12.09;;
71172;SDS011;58875;51.996;4.504;2023-03-29T07:04:18;11.97;;;11.92;;
71172;SDS011;58875;51.996;4.504;2023-03-29T07:06:44;11.84;;;11.84;;
71172;SDS011;58875;51.996;4.504;2023-03-29T07:09:13;11.51;;;11.48;;
71172;SDS011;58875;51.996;4.504;2023-03-29T07:11:40;11.80;;;11.75;;
71172;SDS011;58875;51.996;4.504;2023-03-29T07:14:10;11.65;;;11.58;;
71172;SDS011;58875;51.996;4.504;2023-03-29T07:16:36;11.36;;;11.34;;
71172;SDS011;58875;51.996;4.504;2023-03-29T07:19:01;11.56;;;11.55;;
71172;SDS011;58875;51.996;4.504;2023-03-29T07:21:28;11.15;;;11.15;;
71172;SDS011;58875;51.996;4.504;2023-03-29T07:23:54;12.04;;;12.04;;
71172;SDS011;58875;51.996;4.504;2023-03-29T07:26:22;12.32;;;12.30;;
71172;SDS011;58875;51.996;4.504;2023-03-29T07:28:49;11.84;;;11.82;;
71172;SDS011;58875;51.996;4.504;2023-03-29T07:31:15;11.56;;;11.53;;
71172;SDS011;58875;51.996;4.504;2023-03-29T07:33:41;11.93;;;11.90;;
71172;SDS011;58875;51.996;4.504;2023-03-29T07:36:08;11.55;;;11.52;;
71172;SDS011;58875;51.996;4.504;2023-03-29T07:38:35;12.45;;;12.36;;
71172;SDS011;58875;51.996;4.504;2023-03-29T07:41:02;12.22;;;12.21;;
71172;SDS011;58875;51.996;4.504;2023-03-29T07:43:30;12.00;;;11.96;;
71172;SDS011;58875;51.996;4.504;2023-03-29T07:45:59;12.14;;;12.12;;
71172;SDS011;58875;51.996;4.504;2023-03-29T07:48:25;12.25;;;12.25;;
71172;SDS011;58875;51.996;4.504;2023-03-29T07:50:51;12.70;;;12.57;;
71172;SDS011;58875;51.996;4.504;2023-03-29T07:53:17;13.12;;;13.00;;
71172;SDS011;58875;51.996;4.504;2023-03-29T07:55:42;12.81;;;12.78;;
71172;SDS011;58875;51.996;4.504;2023-03-29T07:58:11;13.17;;;13.16;;
